Terminal Aerodrome Forecast
Issued by NWS

Home | Current Version | Previous Version | Text Only | Print | Product List | Glossary On
Versions: 1 2 3 4 5 6 7 8 9 10 11 12 13 14 15
029
FTUS43 KILX 032336
TAFDEC
TAF
KDEC 032336Z 0400/0424 10005KT P6SM BKN025 BKN140
     FM040300 VRB04KT P6SM SCT025 BKN100
     FM041000 VRB03KT P6SM VCSH OVC060
     FM041300 11004KT 3SM -SNRA BR OVC025
     FM041500 12005KT 1 1/2SM -RASN BR OVC008
     FM041900 18005KT P6SM OVC008=

USA.gov is the U.S. government's official web portal to all federal, state and local government web resources and services.